<?xml version="1.0" encoding="UTF-8" standalone="no" ?>
<gpx xmlns="http://www.topografix.com/GPX/1/1" xmlns:xsi="http://www.w3.org/2001/XMLSchema-instance" xsi:schemaLocation="http://www.topografix.com/GPX/1/1 http://www.topografix.com/GPX/1/1/gpx.xsd" version="1.1" creator="VisuGPX - https://www.visugpx.com">
  <metadata>
    <name>GTPR 2019</name>
  </metadata>
  <trk>
    <name><![CDATA[20190510164004-MpfnD]]></name>
    <trkseg>
      <trkpt lat="44.85335" lon="5.76168">
        <ele>823</ele>
        <time>2019-05-10T16:38:03Z</time>
      </trkpt>
      <trkpt lat="44.85296" lon="5.76009">
        <ele>822</ele>
        <time>2019-05-10T16:39:03Z</time>
      </trkpt>
      <trkpt lat="44.85316" lon="5.75941">
        <ele>820</ele>
        <time>2019-05-10T16:40:03Z</time>
      </trkpt>
      <trkpt lat="44.85343" lon="5.75826">
        <ele>816</ele>
        <time>2019-05-10T16:41:03Z</time>
      </trkpt>
      <trkpt lat="44.85332" lon="5.75739">
        <ele>818</ele>
        <time>2019-05-10T16:42:03Z</time>
      </trkpt>
      <trkpt lat="44.85364" lon="5.75645">
        <ele>814</ele>
        <time>2019-05-10T16:43:03Z</time>
      </trkpt>
      <trkpt lat="44.85359" lon="5.75499">
        <ele>816</ele>
        <time>2019-05-10T16:44:03Z</time>
      </trkpt>
      <trkpt lat="44.85359" lon="5.75155">
        <ele>811</ele>
        <time>2019-05-10T16:45:03Z</time>
      </trkpt>
      <trkpt lat="44.85335" lon="5.74979">
        <ele>806</ele>
        <time>2019-05-10T16:46:03Z</time>
      </trkpt>
      <trkpt lat="44.8531" lon="5.74843">
        <ele>800</ele>
        <time>2019-05-10T16:47:03Z</time>
      </trkpt>
      <trkpt lat="44.85225" lon="5.74777">
        <ele>795</ele>
        <time>2019-05-10T16:48:03Z</time>
      </trkpt>
      <trkpt lat="44.85216" lon="5.74731">
        <ele>794</ele>
        <time>2019-05-10T16:49:03Z</time>
      </trkpt>
      <trkpt lat="44.85126" lon="5.74672">
        <ele>786</ele>
        <time>2019-05-10T16:50:03Z</time>
      </trkpt>
      <trkpt lat="44.85109" lon="5.74563">
        <ele>783</ele>
        <time>2019-05-10T16:51:03Z</time>
      </trkpt>
      <trkpt lat="44.85023" lon="5.74455">
        <ele>773</ele>
        <time>2019-05-10T16:52:03Z</time>
      </trkpt>
      <trkpt lat="44.85021" lon="5.74392">
        <ele>768</ele>
        <time>2019-05-10T16:53:03Z</time>
      </trkpt>
      <trkpt lat="44.85189" lon="5.74185">
        <ele>752</ele>
        <time>2019-05-10T16:54:03Z</time>
      </trkpt>
      <trkpt lat="44.85209" lon="5.74073">
        <ele>745</ele>
        <time>2019-05-10T16:55:03Z</time>
      </trkpt>
      <trkpt lat="44.85245" lon="5.73996">
        <ele>742</ele>
        <time>2019-05-10T16:56:03Z</time>
      </trkpt>
      <trkpt lat="44.85245" lon="5.73942">
        <ele>741</ele>
        <time>2019-05-10T16:57:03Z</time>
      </trkpt>
      <trkpt lat="44.85236" lon="5.73904">
        <ele>741</ele>
        <time>2019-05-10T16:58:03Z</time>
      </trkpt>
      <trkpt lat="44.85122" lon="5.73825">
        <ele>742</ele>
        <time>2019-05-10T16:59:03Z</time>
      </trkpt>
      <trkpt lat="44.85015" lon="5.73794">
        <ele>750</ele>
        <time>2019-05-10T17:00:03Z</time>
      </trkpt>
      <trkpt lat="44.84824" lon="5.73692">
        <ele>757</ele>
        <time>2019-05-10T17:01:03Z</time>
      </trkpt>
      <trkpt lat="44.84798" lon="5.73621">
        <ele>753</ele>
        <time>2019-05-10T17:02:03Z</time>
      </trkpt>
      <trkpt lat="44.8471" lon="5.73481">
        <ele>757</ele>
        <time>2019-05-10T17:03:03Z</time>
      </trkpt>
      <trkpt lat="44.847" lon="5.73422">
        <ele>760</ele>
        <time>2019-05-10T17:04:03Z</time>
      </trkpt>
      <trkpt lat="44.84646" lon="5.73343">
        <ele>766</ele>
        <time>2019-05-10T17:05:03Z</time>
      </trkpt>
      <trkpt lat="44.84608" lon="5.73113">
        <ele>778</ele>
        <time>2019-05-10T17:06:03Z</time>
      </trkpt>
      <trkpt lat="44.84577" lon="5.72904">
        <ele>789</ele>
        <time>2019-05-10T17:07:03Z</time>
      </trkpt>
      <trkpt lat="44.84538" lon="5.72815">
        <ele>794</ele>
        <time>2019-05-10T17:08:03Z</time>
      </trkpt>
      <trkpt lat="44.84538" lon="5.72626">
        <ele>813</ele>
        <time>2019-05-10T17:09:03Z</time>
      </trkpt>
      <trkpt lat="44.84581" lon="5.72567">
        <ele>822</ele>
        <time>2019-05-10T17:10:03Z</time>
      </trkpt>
      <trkpt lat="44.84571" lon="5.72541">
        <ele>824</ele>
        <time>2019-05-10T17:11:03Z</time>
      </trkpt>
      <trkpt lat="44.84537" lon="5.72559">
        <ele>819</ele>
        <time>2019-05-10T17:12:03Z</time>
      </trkpt>
      <trkpt lat="44.84474" lon="5.72554">
        <ele>817</ele>
        <time>2019-05-10T17:13:03Z</time>
      </trkpt>
      <trkpt lat="44.84422" lon="5.72529">
        <ele>819</ele>
        <time>2019-05-10T17:14:03Z</time>
      </trkpt>
      <trkpt lat="44.84384" lon="5.72452">
        <ele>829</ele>
        <time>2019-05-10T17:15:03Z</time>
      </trkpt>
      <trkpt lat="44.84342" lon="5.72388">
        <ele>835</ele>
        <time>2019-05-10T17:16:03Z</time>
      </trkpt>
      <trkpt lat="44.84324" lon="5.7235">
        <ele>839</ele>
        <time>2019-05-10T17:17:03Z</time>
      </trkpt>
      <trkpt lat="44.84321" lon="5.72281">
        <ele>843</ele>
        <time>2019-05-10T17:18:03Z</time>
      </trkpt>
      <trkpt lat="44.84283" lon="5.72343">
        <ele>841</ele>
        <time>2019-05-10T17:19:03Z</time>
      </trkpt>
      <trkpt lat="44.84212" lon="5.72312">
        <ele>845</ele>
        <time>2019-05-10T17:20:03Z</time>
      </trkpt>
      <trkpt lat="44.84145" lon="5.72248">
        <ele>849</ele>
        <time>2019-05-10T17:21:03Z</time>
      </trkpt>
      <trkpt lat="44.84074" lon="5.72151">
        <ele>853</ele>
        <time>2019-05-10T17:22:03Z</time>
      </trkpt>
      <trkpt lat="44.84026" lon="5.72059">
        <ele>856</ele>
        <time>2019-05-10T17:23:03Z</time>
      </trkpt>
      <trkpt lat="44.83965" lon="5.71978">
        <ele>856</ele>
        <time>2019-05-10T17:24:03Z</time>
      </trkpt>
      <trkpt lat="44.83876" lon="5.71921">
        <ele>856</ele>
        <time>2019-05-10T17:25:03Z</time>
      </trkpt>
      <trkpt lat="44.83744" lon="5.71863">
        <ele>853</ele>
        <time>2019-05-10T17:26:03Z</time>
      </trkpt>
      <trkpt lat="44.83662" lon="5.71857">
        <ele>850</ele>
        <time>2019-05-10T17:27:03Z</time>
      </trkpt>
      <trkpt lat="44.83537" lon="5.71847">
        <ele>847</ele>
        <time>2019-05-10T17:28:03Z</time>
      </trkpt>
      <trkpt lat="44.83402" lon="5.71746">
        <ele>843</ele>
        <time>2019-05-10T17:29:03Z</time>
      </trkpt>
      <trkpt lat="44.83268" lon="5.71697">
        <ele>836</ele>
        <time>2019-05-10T17:30:03Z</time>
      </trkpt>
      <trkpt lat="44.83069" lon="5.71692">
        <ele>823</ele>
        <time>2019-05-10T17:31:03Z</time>
      </trkpt>
      <trkpt lat="44.83001" lon="5.71747">
        <ele>824</ele>
        <time>2019-05-10T17:32:03Z</time>
      </trkpt>
      <trkpt lat="44.82944" lon="5.71697">
        <ele>815</ele>
        <time>2019-05-10T17:33:03Z</time>
      </trkpt>
      <trkpt lat="44.82766" lon="5.71685">
        <ele>804</ele>
        <time>2019-05-10T17:34:03Z</time>
      </trkpt>
      <trkpt lat="44.82668" lon="5.71688">
        <ele>802</ele>
        <time>2019-05-10T17:35:03Z</time>
      </trkpt>
      <trkpt lat="44.82586" lon="5.71542">
        <ele>786</ele>
        <time>2019-05-10T17:36:03Z</time>
      </trkpt>
      <trkpt lat="44.82352" lon="5.71534">
        <ele>784</ele>
        <time>2019-05-10T17:37:03Z</time>
      </trkpt>
      <trkpt lat="44.82264" lon="5.71349">
        <ele>797</ele>
        <time>2019-05-10T17:38:03Z</time>
      </trkpt>
      <trkpt lat="44.82273" lon="5.7107">
        <ele>757</ele>
        <time>2019-05-10T17:39:03Z</time>
      </trkpt>
      <trkpt lat="44.82236" lon="5.7092">
        <ele>749</ele>
        <time>2019-05-10T17:40:03Z</time>
      </trkpt>
      <trkpt lat="44.82124" lon="5.70632">
        <ele>748</ele>
        <time>2019-05-10T17:41:03Z</time>
      </trkpt>
      <trkpt lat="44.81993" lon="5.7036">
        <ele>726</ele>
        <time>2019-05-10T17:42:03Z</time>
      </trkpt>
      <trkpt lat="44.81993" lon="5.69934">
        <ele>715</ele>
        <time>2019-05-10T17:43:03Z</time>
      </trkpt>
      <trkpt lat="44.81783" lon="5.69674">
        <ele>704</ele>
        <time>2019-05-10T17:44:03Z</time>
      </trkpt>
      <trkpt lat="44.81885" lon="5.69393">
        <ele>714</ele>
        <time>2019-05-10T17:45:03Z</time>
      </trkpt>
      <trkpt lat="44.81762" lon="5.69292">
        <ele>691</ele>
        <time>2019-05-10T17:46:03Z</time>
      </trkpt>
      <trkpt lat="44.81921" lon="5.68946">
        <ele>689</ele>
        <time>2019-05-10T17:47:03Z</time>
      </trkpt>
      <trkpt lat="44.82151" lon="5.68635">
        <ele>688</ele>
        <time>2019-05-10T17:48:03Z</time>
      </trkpt>
      <trkpt lat="44.82397" lon="5.68635">
        <ele>694</ele>
        <time>2019-05-10T17:49:03Z</time>
      </trkpt>
      <trkpt lat="44.82541" lon="5.68361">
        <ele>699</ele>
        <time>2019-05-10T17:50:03Z</time>
      </trkpt>
      <trkpt lat="44.82494" lon="5.68195">
        <ele>700</ele>
        <time>2019-05-10T17:51:03Z</time>
      </trkpt>
      <trkpt lat="44.82587" lon="5.67877">
        <ele>697</ele>
        <time>2019-05-10T17:52:03Z</time>
      </trkpt>
      <trkpt lat="44.82633" lon="5.67639">
        <ele>678</ele>
        <time>2019-05-10T17:53:03Z</time>
      </trkpt>
      <trkpt lat="44.82505" lon="5.67524">
        <ele>660</ele>
        <time>2019-05-10T17:54:03Z</time>
      </trkpt>
      <trkpt lat="44.82464" lon="5.67437">
        <ele>648</ele>
        <time>2019-05-10T17:55:03Z</time>
      </trkpt>
      <trkpt lat="44.82447" lon="5.67042">
        <ele>606</ele>
        <time>2019-05-10T17:56:03Z</time>
      </trkpt>
      <trkpt lat="44.82279" lon="5.67266">
        <ele>598</ele>
        <time>2019-05-10T17:57:03Z</time>
      </trkpt>
      <trkpt lat="44.82369" lon="5.67075">
        <ele>596</ele>
        <time>2019-05-10T17:58:03Z</time>
      </trkpt>
      <trkpt lat="44.82438" lon="5.66978">
        <ele>593</ele>
        <time>2019-05-10T17:59:03Z</time>
      </trkpt>
      <trkpt lat="44.82539" lon="5.66951">
        <ele>592</ele>
        <time>2019-05-10T18:00:03Z</time>
      </trkpt>
      <trkpt lat="44.82614" lon="5.67054">
        <ele>599</ele>
        <time>2019-05-10T18:01:03Z</time>
      </trkpt>
      <trkpt lat="44.82657" lon="5.67154">
        <ele>608</ele>
        <time>2019-05-10T18:02:03Z</time>
      </trkpt>
      <trkpt lat="44.82767" lon="5.67187">
        <ele>604</ele>
        <time>2019-05-10T18:03:03Z</time>
      </trkpt>
      <trkpt lat="44.82789" lon="5.67299">
        <ele>620</ele>
        <time>2019-05-10T18:04:03Z</time>
      </trkpt>
      <trkpt lat="44.82825" lon="5.67375">
        <ele>627</ele>
        <time>2019-05-10T18:05:03Z</time>
      </trkpt>
      <trkpt lat="44.82888" lon="5.67342">
        <ele>627</ele>
        <time>2019-05-10T18:06:03Z</time>
      </trkpt>
      <trkpt lat="44.83019" lon="5.67175">
        <ele>626</ele>
        <time>2019-05-10T18:07:03Z</time>
      </trkpt>
      <trkpt lat="44.83114" lon="5.67208">
        <ele>637</ele>
        <time>2019-05-10T18:08:03Z</time>
      </trkpt>
      <trkpt lat="44.83221" lon="5.67221">
        <ele>635</ele>
        <time>2019-05-10T18:09:03Z</time>
      </trkpt>
      <trkpt lat="44.83301" lon="5.67457">
        <ele>661</ele>
        <time>2019-05-10T18:10:03Z</time>
      </trkpt>
      <trkpt lat="44.83467" lon="5.67475">
        <ele>665</ele>
        <time>2019-05-10T18:11:03Z</time>
      </trkpt>
      <trkpt lat="44.83607" lon="5.67515">
        <ele>681</ele>
        <time>2019-05-10T18:12:03Z</time>
      </trkpt>
      <trkpt lat="44.83755" lon="5.67451">
        <ele>684</ele>
        <time>2019-05-10T18:13:03Z</time>
      </trkpt>
      <trkpt lat="44.83796" lon="5.67424">
        <ele>693</ele>
        <time>2019-05-10T18:14:03Z</time>
      </trkpt>
      <trkpt lat="44.83755" lon="5.67339">
        <ele>692</ele>
        <time>2019-05-10T18:15:03Z</time>
      </trkpt>
      <trkpt lat="44.83632" lon="5.67287">
        <ele>683</ele>
        <time>2019-05-10T18:16:03Z</time>
      </trkpt>
      <trkpt lat="44.8366" lon="5.67236">
        <ele>691</ele>
        <time>2019-05-10T18:17:03Z</time>
      </trkpt>
      <trkpt lat="44.83726" lon="5.67267">
        <ele>695</ele>
        <time>2019-05-10T18:18:03Z</time>
      </trkpt>
      <trkpt lat="44.83788" lon="5.67231">
        <ele>700</ele>
        <time>2019-05-10T18:19:03Z</time>
      </trkpt>
      <trkpt lat="44.83844" lon="5.67195">
        <ele>700</ele>
        <time>2019-05-10T18:20:03Z</time>
      </trkpt>
      <trkpt lat="44.83988" lon="5.67239">
        <ele>701</ele>
        <time>2019-05-10T18:21:03Z</time>
      </trkpt>
      <trkpt lat="44.84084" lon="5.67294">
        <ele>708</ele>
        <time>2019-05-10T18:22:03Z</time>
      </trkpt>
      <trkpt lat="44.84235" lon="5.67141">
        <ele>705</ele>
        <time>2019-05-10T18:23:03Z</time>
      </trkpt>
      <trkpt lat="44.84638" lon="5.67161">
        <ele>720</ele>
        <time>2019-05-10T18:24:03Z</time>
      </trkpt>
      <trkpt lat="44.84874" lon="5.67199">
        <ele>737</ele>
        <time>2019-05-10T18:25:03Z</time>
      </trkpt>
      <trkpt lat="44.8499" lon="5.67181">
        <ele>738</ele>
        <time>2019-05-10T18:26:03Z</time>
      </trkpt>
      <trkpt lat="44.85098" lon="5.67137">
        <ele>735</ele>
        <time>2019-05-10T18:27:03Z</time>
      </trkpt>
      <trkpt lat="44.85217" lon="5.67095">
        <ele>737</ele>
        <time>2019-05-10T18:28:03Z</time>
      </trkpt>
      <trkpt lat="44.85603" lon="5.67176">
        <ele>743</ele>
        <time>2019-05-10T18:29:03Z</time>
      </trkpt>
      <trkpt lat="44.85621" lon="5.6734">
        <ele>744</ele>
        <time>2019-05-10T18:30:03Z</time>
      </trkpt>
      <trkpt lat="44.85659" lon="5.67503">
        <ele>740</ele>
        <time>2019-05-10T18:31:03Z</time>
      </trkpt>
      <trkpt lat="44.85757" lon="5.67591">
        <ele>725</ele>
        <time>2019-05-10T18:32:03Z</time>
      </trkpt>
      <trkpt lat="44.85775" lon="5.67632">
        <ele>725</ele>
        <time>2019-05-10T18:33:03Z</time>
      </trkpt>
      <trkpt lat="44.85771" lon="5.67706">
        <ele>734</ele>
        <time>2019-05-10T18:34:03Z</time>
      </trkpt>
      <trkpt lat="44.85825" lon="5.67736">
        <ele>727</ele>
        <time>2019-05-10T18:35:03Z</time>
      </trkpt>
      <trkpt lat="44.85894" lon="5.67925">
        <ele>726</ele>
        <time>2019-05-10T18:36:03Z</time>
      </trkpt>
      <trkpt lat="44.85913" lon="5.68131">
        <ele>708</ele>
        <time>2019-05-10T18:37:03Z</time>
      </trkpt>
      <trkpt lat="44.85846" lon="5.68201">
        <ele>714</ele>
        <time>2019-05-10T18:38:03Z</time>
      </trkpt>
      <trkpt lat="44.85827" lon="5.68322">
        <ele>700</ele>
        <time>2019-05-10T18:39:03Z</time>
      </trkpt>
      <trkpt lat="44.85973" lon="5.68337">
        <ele>680</ele>
        <time>2019-05-10T18:40:03Z</time>
      </trkpt>
      <trkpt lat="44.86016" lon="5.68301">
        <ele>675</ele>
        <time>2019-05-10T18:41:03Z</time>
      </trkpt>
      <trkpt lat="44.86018" lon="5.68198">
        <ele>674</ele>
        <time>2019-05-10T18:42:03Z</time>
      </trkpt>
      <trkpt lat="44.86119" lon="5.68149">
        <ele>663</ele>
        <time>2019-05-10T18:43:03Z</time>
      </trkpt>
      <trkpt lat="44.86205" lon="5.68088">
        <ele>655</ele>
        <time>2019-05-10T18:44:03Z</time>
      </trkpt>
      <trkpt lat="44.86442" lon="5.67536">
        <ele>621</ele>
        <time>2019-05-10T18:45:03Z</time>
      </trkpt>
      <trkpt lat="44.86482" lon="5.67722">
        <ele>613</ele>
        <time>2019-05-10T18:46:03Z</time>
      </trkpt>
      <trkpt lat="44.8651" lon="5.67713">
        <ele>609</ele>
        <time>2019-05-10T18:47:03Z</time>
      </trkpt>
      <trkpt lat="44.86527" lon="5.67656">
        <ele>606</ele>
        <time>2019-05-10T18:48:03Z</time>
      </trkpt>
      <trkpt lat="44.86582" lon="5.67519">
        <ele>598</ele>
        <time>2019-05-10T18:49:03Z</time>
      </trkpt>
      <trkpt lat="44.86597" lon="5.67377">
        <ele>590</ele>
        <time>2019-05-10T18:50:03Z</time>
      </trkpt>
      <trkpt lat="44.8661" lon="5.67355">
        <ele>586</ele>
        <time>2019-05-10T18:51:03Z</time>
      </trkpt>
      <trkpt lat="44.86642" lon="5.67426">
        <ele>586</ele>
        <time>2019-05-10T18:52:03Z</time>
      </trkpt>
      <trkpt lat="44.86703" lon="5.67587">
        <ele>580</ele>
        <time>2019-05-10T18:53:03Z</time>
      </trkpt>
      <trkpt lat="44.86703" lon="5.6764">
        <ele>581</ele>
        <time>2019-05-10T18:54:03Z</time>
      </trkpt>
      <trkpt lat="44.8671" lon="5.6766">
        <ele>582</ele>
        <time>2019-05-10T18:55:03Z</time>
      </trkpt>
      <trkpt lat="44.86726" lon="5.67647">
        <ele>580</ele>
        <time>2019-05-10T18:56:03Z</time>
      </trkpt>
      <trkpt lat="44.86728" lon="5.67608">
        <ele>578</ele>
        <time>2019-05-10T18:57:03Z</time>
      </trkpt>
      <trkpt lat="44.86728" lon="5.67579">
        <ele>577</ele>
        <time>2019-05-10T18:58:03Z</time>
      </trkpt>
      <trkpt lat="44.86716" lon="5.67505">
        <ele>577</ele>
        <time>2019-05-10T18:59:03Z</time>
      </trkpt>
      <trkpt lat="44.8672" lon="5.67442">
        <ele>576</ele>
        <time>2019-05-10T19:00:03Z</time>
      </trkpt>
      <trkpt lat="44.86731" lon="5.67474">
        <ele>575</ele>
        <time>2019-05-10T19:01:03Z</time>
      </trkpt>
      <trkpt lat="44.86792" lon="5.6746">
        <ele>579</ele>
        <time>2019-05-10T19:02:03Z</time>
      </trkpt>
      <trkpt lat="44.86847" lon="5.67398">
        <ele>581</ele>
        <time>2019-05-10T19:03:03Z</time>
      </trkpt>
      <trkpt lat="44.86905" lon="5.674">
        <ele>579</ele>
        <time>2019-05-10T19:04:03Z</time>
      </trkpt>
      <trkpt lat="44.86991" lon="5.67415">
        <ele>578</ele>
        <time>2019-05-10T19:05:03Z</time>
      </trkpt>
      <trkpt lat="44.87036" lon="5.67404">
        <ele>550</ele>
        <time>2019-05-10T19:06:03Z</time>
      </trkpt>
      <trkpt lat="44.87036" lon="5.67461">
        <ele>562</ele>
        <time>2019-05-10T19:07:03Z</time>
      </trkpt>
      <trkpt lat="44.87044" lon="5.67528">
        <ele>563</ele>
        <time>2019-05-10T19:08:03Z</time>
      </trkpt>
      <trkpt lat="44.87037" lon="5.67584">
        <ele>567</ele>
        <time>2019-05-10T19:09:03Z</time>
      </trkpt>
      <trkpt lat="44.87075" lon="5.67608">
        <ele>548</ele>
        <time>2019-05-10T19:10:03Z</time>
      </trkpt>
      <trkpt lat="44.8708" lon="5.67643">
        <ele>546</ele>
        <time>2019-05-10T19:11:03Z</time>
      </trkpt>
      <trkpt lat="44.87112" lon="5.67648">
        <ele>528</ele>
        <time>2019-05-10T19:12:03Z</time>
      </trkpt>
      <trkpt lat="44.87281" lon="5.67721">
        <ele>511</ele>
        <time>2019-05-10T19:13:03Z</time>
      </trkpt>
      <trkpt lat="44.87283" lon="5.67673">
        <ele>523</ele>
        <time>2019-05-10T19:14:03Z</time>
      </trkpt>
      <trkpt lat="44.8733" lon="5.67651">
        <ele>555</ele>
        <time>2019-05-10T19:15:03Z</time>
      </trkpt>
      <trkpt lat="44.87441" lon="5.67701">
        <ele>562</ele>
        <time>2019-05-10T19:16:03Z</time>
      </trkpt>
      <trkpt lat="44.87504" lon="5.67696">
        <ele>569</ele>
        <time>2019-05-10T19:17:03Z</time>
      </trkpt>
      <trkpt lat="44.8761" lon="5.67716">
        <ele>563</ele>
        <time>2019-05-10T19:18:03Z</time>
      </trkpt>
      <trkpt lat="44.87708" lon="5.67719">
        <ele>565</ele>
        <time>2019-05-10T19:19:03Z</time>
      </trkpt>
      <trkpt lat="44.87841" lon="5.67698">
        <ele>562</ele>
        <time>2019-05-10T19:20:03Z</time>
      </trkpt>
      <trkpt lat="44.87971" lon="5.67667">
        <ele>563</ele>
        <time>2019-05-10T19:21:03Z</time>
      </trkpt>
      <trkpt lat="44.88009" lon="5.67626">
        <ele>571</ele>
        <time>2019-05-10T19:22:03Z</time>
      </trkpt>
      <trkpt lat="44.88123" lon="5.67581">
        <ele>563</ele>
        <time>2019-05-10T19:23:03Z</time>
      </trkpt>
      <trkpt lat="44.88274" lon="5.67568">
        <ele>542</ele>
        <time>2019-05-10T19:24:03Z</time>
      </trkpt>
      <trkpt lat="44.88354" lon="5.67501">
        <ele>539</ele>
        <time>2019-05-10T19:25:03Z</time>
      </trkpt>
      <trkpt lat="44.88491" lon="5.67465">
        <ele>533</ele>
        <time>2019-05-10T19:26:03Z</time>
      </trkpt>
      <trkpt lat="44.88529" lon="5.67429">
        <ele>536</ele>
        <time>2019-05-10T19:27:03Z</time>
      </trkpt>
      <trkpt lat="44.88662" lon="5.67409">
        <ele>531</ele>
        <time>2019-05-10T19:28:03Z</time>
      </trkpt>
      <trkpt lat="44.88819" lon="5.67366">
        <ele>530</ele>
        <time>2019-05-10T19:29:03Z</time>
      </trkpt>
      <trkpt lat="44.88888" lon="5.67351">
        <ele>528</ele>
        <time>2019-05-10T19:30:03Z</time>
      </trkpt>
      <trkpt lat="44.88963" lon="5.67333">
        <ele>530</ele>
        <time>2019-05-10T19:31:03Z</time>
      </trkpt>
      <trkpt lat="44.89092" lon="5.67328">
        <ele>536</ele>
        <time>2019-05-10T19:32:03Z</time>
      </trkpt>
      <trkpt lat="44.892" lon="5.67297">
        <ele>545</ele>
        <time>2019-05-10T19:33:03Z</time>
      </trkpt>
      <trkpt lat="44.89292" lon="5.67304">
        <ele>538</ele>
        <time>2019-05-10T19:34:03Z</time>
      </trkpt>
      <trkpt lat="44.89453" lon="5.67252">
        <ele>544</ele>
        <time>2019-05-10T19:35:03Z</time>
      </trkpt>
      <trkpt lat="44.8954" lon="5.67234">
        <ele>539</ele>
        <time>2019-05-10T19:36:03Z</time>
      </trkpt>
      <trkpt lat="44.89579" lon="5.67203">
        <ele>540</ele>
        <time>2019-05-10T19:37:03Z</time>
      </trkpt>
      <trkpt lat="44.89627" lon="5.67225">
        <ele>535</ele>
        <time>2019-05-10T19:38:03Z</time>
      </trkpt>
      <trkpt lat="44.89678" lon="5.67212">
        <ele>536</ele>
        <time>2019-05-10T19:39:03Z</time>
      </trkpt>
      <trkpt lat="44.89811" lon="5.67156">
        <ele>540</ele>
        <time>2019-05-10T19:40:03Z</time>
      </trkpt>
      <trkpt lat="44.89932" lon="5.67097">
        <ele>546</ele>
        <time>2019-05-10T19:41:03Z</time>
      </trkpt>
      <trkpt lat="44.90012" lon="5.6705">
        <ele>550</ele>
        <time>2019-05-10T19:42:03Z</time>
      </trkpt>
      <trkpt lat="44.90068" lon="5.67039">
        <ele>544</ele>
        <time>2019-05-10T19:43:03Z</time>
      </trkpt>
      <trkpt lat="44.90168" lon="5.66969">
        <ele>551</ele>
        <time>2019-05-10T19:44:03Z</time>
      </trkpt>
      <trkpt lat="44.90261" lon="5.66976">
        <ele>546</ele>
        <time>2019-05-10T19:45:03Z</time>
      </trkpt>
      <trkpt lat="44.90293" lon="5.66929">
        <ele>554</ele>
        <time>2019-05-10T19:46:03Z</time>
      </trkpt>
      <trkpt lat="44.90343" lon="5.66904">
        <ele>557</ele>
        <time>2019-05-10T19:47:03Z</time>
      </trkpt>
      <trkpt lat="44.90389" lon="5.6687">
        <ele>563</ele>
        <time>2019-05-10T19:48:03Z</time>
      </trkpt>
      <trkpt lat="44.90444" lon="5.66879">
        <ele>556</ele>
        <time>2019-05-10T19:49:03Z</time>
      </trkpt>
      <trkpt lat="44.90583" lon="5.66826">
        <ele>562</ele>
        <time>2019-05-10T19:50:03Z</time>
      </trkpt>
      <trkpt lat="44.90724" lon="5.66794">
        <ele>568</ele>
        <time>2019-05-10T19:51:03Z</time>
      </trkpt>
      <trkpt lat="44.90849" lon="5.66797">
        <ele>564</ele>
        <time>2019-05-10T19:52:03Z</time>
      </trkpt>
      <trkpt lat="44.90902" lon="5.6672">
        <ele>575</ele>
        <time>2019-05-10T19:53:03Z</time>
      </trkpt>
      <trkpt lat="44.91051" lon="5.66621">
        <ele>583</ele>
        <time>2019-05-10T19:54:03Z</time>
      </trkpt>
      <trkpt lat="44.91139" lon="5.66606">
        <ele>576</ele>
        <time>2019-05-10T19:55:03Z</time>
      </trkpt>
      <trkpt lat="44.91157" lon="5.66474">
        <ele>588</ele>
        <time>2019-05-10T19:56:03Z</time>
      </trkpt>
      <trkpt lat="44.91225" lon="5.66341">
        <ele>590</ele>
        <time>2019-05-10T19:57:03Z</time>
      </trkpt>
      <trkpt lat="44.91295" lon="5.6626">
        <ele>591</ele>
        <time>2019-05-10T19:58:03Z</time>
      </trkpt>
      <trkpt lat="44.91314" lon="5.66146">
        <ele>599</ele>
        <time>2019-05-10T19:59:03Z</time>
      </trkpt>
      <trkpt lat="44.91301" lon="5.66059">
        <ele>606</ele>
        <time>2019-05-10T20:00:03Z</time>
      </trkpt>
      <trkpt lat="44.91253" lon="5.65946">
        <ele>612</ele>
        <time>2019-05-10T20:01:03Z</time>
      </trkpt>
      <trkpt lat="44.91207" lon="5.6585">
        <ele>618</ele>
        <time>2019-05-10T20:02:03Z</time>
      </trkpt>
      <trkpt lat="44.91224" lon="5.658">
        <ele>612</ele>
        <time>2019-05-10T20:03:03Z</time>
      </trkpt>
      <trkpt lat="44.91316" lon="5.65684">
        <ele>615</ele>
        <time>2019-05-10T20:04:03Z</time>
      </trkpt>
      <trkpt lat="44.91291" lon="5.65653">
        <ele>617</ele>
        <time>2019-05-10T20:05:03Z</time>
      </trkpt>
      <trkpt lat="44.91248" lon="5.65661">
        <ele>615</ele>
        <time>2019-05-10T20:06:03Z</time>
      </trkpt>
      <trkpt lat="44.91216" lon="5.65684">
        <ele>615</ele>
        <time>2019-05-10T20:07:03Z</time>
      </trkpt>
      <trkpt lat="44.91169" lon="5.65594">
        <ele>621</ele>
        <time>2019-05-10T20:08:03Z</time>
      </trkpt>
      <trkpt lat="44.91106" lon="5.65585">
        <ele>628</ele>
        <time>2019-05-10T20:09:03Z</time>
      </trkpt>
      <trkpt lat="44.91031" lon="5.65567">
        <ele>638</ele>
        <time>2019-05-10T20:10:03Z</time>
      </trkpt>
      <trkpt lat="44.90971" lon="5.65565">
        <ele>642</ele>
        <time>2019-05-10T20:11:03Z</time>
      </trkpt>
      <trkpt lat="44.9089" lon="5.65601">
        <ele>649</ele>
        <time>2019-05-10T20:12:03Z</time>
      </trkpt>
      <trkpt lat="44.90838" lon="5.65587">
        <ele>655</ele>
        <time>2019-05-10T20:13:03Z</time>
      </trkpt>
      <trkpt lat="44.90833" lon="5.65643">
        <ele>671</ele>
        <time>2019-05-10T20:14:03Z</time>
      </trkpt>
      <trkpt lat="44.9107" lon="5.65913">
        <ele>688</ele>
        <time>2019-05-10T20:15:03Z</time>
      </trkpt>
      <trkpt lat="44.91123" lon="5.6602">
        <ele>687</ele>
        <time>2019-05-10T20:16:03Z</time>
      </trkpt>
      <trkpt lat="44.91029" lon="5.66074">
        <ele>716</ele>
        <time>2019-05-10T20:17:03Z</time>
      </trkpt>
      <trkpt lat="44.91" lon="5.66128">
        <ele>716</ele>
        <time>2019-05-10T20:18:03Z</time>
      </trkpt>
      <trkpt lat="44.90974" lon="5.66175">
        <ele>714</ele>
        <time>2019-05-10T20:19:03Z</time>
      </trkpt>
      <trkpt lat="44.90956" lon="5.66168">
        <ele>725</ele>
        <time>2019-05-10T20:20:03Z</time>
      </trkpt>
      <trkpt lat="44.90982" lon="5.6611">
        <ele>730</ele>
        <time>2019-05-10T20:21:03Z</time>
      </trkpt>
      <trkpt lat="44.9101" lon="5.66002">
        <ele>732</ele>
        <time>2019-05-10T20:22:03Z</time>
      </trkpt>
      <trkpt lat="44.90765" lon="5.658">
        <ele>771</ele>
        <time>2019-05-10T20:23:03Z</time>
      </trkpt>
      <trkpt lat="44.90724" lon="5.65765">
        <ele>765</ele>
        <time>2019-05-10T20:24:03Z</time>
      </trkpt>
      <trkpt lat="44.90659" lon="5.65798">
        <ele>797</ele>
        <time>2019-05-10T20:25:03Z</time>
      </trkpt>
      <trkpt lat="44.90615" lon="5.6576">
        <ele>799</ele>
        <time>2019-05-10T20:26:03Z</time>
      </trkpt>
      <trkpt lat="44.90551" lon="5.65691">
        <ele>796</ele>
        <time>2019-05-10T20:27:03Z</time>
      </trkpt>
      <trkpt lat="44.90507" lon="5.6567">
        <ele>799</ele>
        <time>2019-05-10T20:28:03Z</time>
      </trkpt>
      <trkpt lat="44.90436" lon="5.65686">
        <ele>808</ele>
        <time>2019-05-10T20:29:03Z</time>
      </trkpt>
      <trkpt lat="44.90379" lon="5.65699">
        <ele>815</ele>
        <time>2019-05-10T20:30:03Z</time>
      </trkpt>
      <trkpt lat="44.90326" lon="5.65724">
        <ele>825</ele>
        <time>2019-05-10T20:31:03Z</time>
      </trkpt>
      <trkpt lat="44.90293" lon="5.65754">
        <ele>837</ele>
        <time>2019-05-10T20:32:03Z</time>
      </trkpt>
      <trkpt lat="44.90186" lon="5.65552">
        <ele>814</ele>
        <time>2019-05-10T20:33:03Z</time>
      </trkpt>
      <trkpt lat="44.90126" lon="5.65525">
        <ele>814</ele>
        <time>2019-05-10T20:34:03Z</time>
      </trkpt>
      <trkpt lat="44.90091" lon="5.65511">
        <ele>813</ele>
        <time>2019-05-10T20:35:03Z</time>
      </trkpt>
      <trkpt lat="44.90054" lon="5.65441">
        <ele>809</ele>
        <time>2019-05-10T20:36:03Z</time>
      </trkpt>
      <trkpt lat="44.90031" lon="5.65383">
        <ele>803</ele>
        <time>2019-05-10T20:37:03Z</time>
      </trkpt>
      <trkpt lat="44.89988" lon="5.6537">
        <ele>806</ele>
        <time>2019-05-10T20:38:03Z</time>
      </trkpt>
      <trkpt lat="44.89928" lon="5.65374">
        <ele>808</ele>
        <time>2019-05-10T20:39:03Z</time>
      </trkpt>
      <trkpt lat="44.89783" lon="5.65282">
        <ele>811</ele>
        <time>2019-05-10T20:40:03Z</time>
      </trkpt>
      <trkpt lat="44.89776" lon="5.65266">
        <ele>811</ele>
        <time>2019-05-10T20:41:03Z</time>
      </trkpt>
      <trkpt lat="44.89802" lon="5.65235">
        <ele>808</ele>
        <time>2019-05-10T20:42:03Z</time>
      </trkpt>
      <trkpt lat="44.89854" lon="5.65109">
        <ele>812</ele>
        <time>2019-05-10T20:43:03Z</time>
      </trkpt>
      <trkpt lat="44.89859" lon="5.65045">
        <ele>820</ele>
        <time>2019-05-10T20:44:03Z</time>
      </trkpt>
      <trkpt lat="44.89861" lon="5.64946">
        <ele>829</ele>
        <time>2019-05-10T20:45:03Z</time>
      </trkpt>
      <trkpt lat="44.89864" lon="5.6484">
        <ele>831</ele>
        <time>2019-05-10T20:46:03Z</time>
      </trkpt>
      <trkpt lat="44.89882" lon="5.64805">
        <ele>830</ele>
        <time>2019-05-10T20:47:03Z</time>
      </trkpt>
      <trkpt lat="44.8993" lon="5.64784">
        <ele>832</ele>
        <time>2019-05-10T20:48:03Z</time>
      </trkpt>
      <trkpt lat="44.89988" lon="5.64856">
        <ele>838</ele>
        <time>2019-05-10T20:49:03Z</time>
      </trkpt>
      <trkpt lat="44.90063" lon="5.64905">
        <ele>848</ele>
        <time>2019-05-10T20:50:03Z</time>
      </trkpt>
      <trkpt lat="44.90155" lon="5.64937">
        <ele>853</ele>
        <time>2019-05-10T20:51:03Z</time>
      </trkpt>
      <trkpt lat="44.90233" lon="5.64923">
        <ele>856</ele>
        <time>2019-05-10T20:52:03Z</time>
      </trkpt>
      <trkpt lat="44.90211" lon="5.64908">
        <ele>863</ele>
        <time>2019-05-10T20:53:03Z</time>
      </trkpt>
      <trkpt lat="44.90154" lon="5.64894">
        <ele>870</ele>
        <time>2019-05-10T20:54:03Z</time>
      </trkpt>
      <trkpt lat="44.90098" lon="5.64845">
        <ele>879</ele>
        <time>2019-05-10T20:55:03Z</time>
      </trkpt>
      <trkpt lat="44.90062" lon="5.64802">
        <ele>879</ele>
        <time>2019-05-10T20:56:03Z</time>
      </trkpt>
      <trkpt lat="44.9004" lon="5.64751">
        <ele>881</ele>
        <time>2019-05-10T20:57:03Z</time>
      </trkpt>
      <trkpt lat="44.90039" lon="5.64704">
        <ele>894</ele>
        <time>2019-05-10T20:58:03Z</time>
      </trkpt>
      <trkpt lat="44.90013" lon="5.64666">
        <ele>893</ele>
        <time>2019-05-10T20:59:03Z</time>
      </trkpt>
      <trkpt lat="44.89985" lon="5.64562">
        <ele>899</ele>
        <time>2019-05-10T21:00:03Z</time>
      </trkpt>
      <trkpt lat="44.89974" lon="5.64506">
        <ele>901</ele>
        <time>2019-05-10T21:01:03Z</time>
      </trkpt>
      <trkpt lat="44.89976" lon="5.64445">
        <ele>901</ele>
        <time>2019-05-10T21:02:03Z</time>
      </trkpt>
      <trkpt lat="44.90025" lon="5.6438">
        <ele>922</ele>
        <time>2019-05-10T21:03:03Z</time>
      </trkpt>
      <trkpt lat="44.90001" lon="5.64327">
        <ele>913</ele>
        <time>2019-05-10T21:04:03Z</time>
      </trkpt>
      <trkpt lat="44.89988" lon="5.64275">
        <ele>917</ele>
        <time>2019-05-10T21:05:03Z</time>
      </trkpt>
      <trkpt lat="44.8999" lon="5.6419">
        <ele>934</ele>
        <time>2019-05-10T21:06:03Z</time>
      </trkpt>
      <trkpt lat="44.89924" lon="5.641">
        <ele>936</ele>
        <time>2019-05-10T21:07:03Z</time>
      </trkpt>
      <trkpt lat="44.89874" lon="5.64017">
        <ele>949</ele>
        <time>2019-05-10T21:08:03Z</time>
      </trkpt>
      <trkpt lat="44.89824" lon="5.63972">
        <ele>948</ele>
        <time>2019-05-10T21:09:03Z</time>
      </trkpt>
      <trkpt lat="44.8973" lon="5.63932">
        <ele>948</ele>
        <time>2019-05-10T21:10:03Z</time>
      </trkpt>
      <trkpt lat="44.89727" lon="5.63913">
        <ele>948</ele>
        <time>2019-05-10T21:11:03Z</time>
      </trkpt>
      <trkpt lat="44.89742" lon="5.63892">
        <ele>947</ele>
        <time>2019-05-10T21:12:03Z</time>
      </trkpt>
      <trkpt lat="44.89789" lon="5.63838">
        <ele>953</ele>
        <time>2019-05-10T21:13:03Z</time>
      </trkpt>
      <trkpt lat="44.89836" lon="5.63787">
        <ele>955</ele>
        <time>2019-05-10T21:14:03Z</time>
      </trkpt>
      <trkpt lat="44.89936" lon="5.63683">
        <ele>953</ele>
        <time>2019-05-10T21:15:03Z</time>
      </trkpt>
      <trkpt lat="44.90002" lon="5.63613">
        <ele>952</ele>
        <time>2019-05-10T21:16:03Z</time>
      </trkpt>
      <trkpt lat="44.90053" lon="5.63527">
        <ele>947</ele>
        <time>2019-05-10T21:17:03Z</time>
      </trkpt>
      <trkpt lat="44.90189" lon="5.63512">
        <ele>944</ele>
        <time>2019-05-10T21:18:03Z</time>
      </trkpt>
      <trkpt lat="44.90308" lon="5.63467">
        <ele>933</ele>
        <time>2019-05-10T21:19:03Z</time>
      </trkpt>
      <trkpt lat="44.90355" lon="5.6343">
        <ele>926</ele>
        <time>2019-05-10T21:20:03Z</time>
      </trkpt>
      <trkpt lat="44.90551" lon="5.6346">
        <ele>906</ele>
        <time>2019-05-10T21:21:03Z</time>
      </trkpt>
      <trkpt lat="44.90618" lon="5.6345">
        <ele>897</ele>
        <time>2019-05-10T21:22:03Z</time>
      </trkpt>
      <trkpt lat="44.9067" lon="5.63381">
        <ele>887</ele>
        <time>2019-05-10T21:23:03Z</time>
      </trkpt>
      <trkpt lat="44.90828" lon="5.63377">
        <ele>875</ele>
        <time>2019-05-10T21:24:03Z</time>
      </trkpt>
      <trkpt lat="44.91019" lon="5.63359">
        <ele>862</ele>
        <time>2019-05-10T21:25:03Z</time>
      </trkpt>
      <trkpt lat="44.91113" lon="5.63342">
        <ele>852</ele>
        <time>2019-05-10T21:26:03Z</time>
      </trkpt>
      <trkpt lat="44.91139" lon="5.63274">
        <ele>849</ele>
        <time>2019-05-10T21:27:03Z</time>
      </trkpt>
    </trkseg>
  </trk>
</gpx>